sensor_id;sensor_type;location;lat;lon;timestamp;pressure;altitude;pressure_sealevel;temperature;humidity
60214;BME280;46080;46.904;19.688;2022-11-15T00:01:49;100665.69;;;5.76;100.00
60214;BME280;46080;46.904;19.688;2022-11-15T00:04:33;100660.16;;;5.79;100.00
60214;BME280;46080;46.904;19.688;2022-11-15T00:07:17;100666.31;;;5.80;100.00
60214;BME280;46080;46.904;19.688;2022-11-15T00:10:02;100663.66;;;5.80;100.00
60214;BME280;46080;46.904;19.688;2022-11-15T00:12:47;100667.06;;;5.70;100.00
60214;BME280;46080;46.904;19.688;2022-11-15T00:15:31;100657.72;;;5.55;100.00
60214;BME280;46080;46.904;19.688;2022-11-15T00:18:18;100662.88;;;5.56;100.00
60214;BME280;46080;46.904;19.688;2022-11-15T00:21:07;100652.56;;;5.53;100.00
60214;BME280;46080;46.904;19.688;2022-11-15T00:23:52;100648.34;;;5.51;100.00
60214;BME280;46080;46.904;19.688;2022-11-15T00:26:36;100654.47;;;5.51;100.00
60214;BME280;46080;46.904;19.688;2022-11-15T00:29:21;100641.53;;;5.37;100.00
60214;BME280;46080;46.904;19.688;2022-11-15T00:32:05;100639.09;;;5.45;100.00
60214;BME280;46080;46.904;19.688;2022-11-15T00:34:49;100640.03;;;5.55;100.00
60214;BME280;46080;46.904;19.688;2022-11-15T00:37:33;100632.44;;;5.62;100.00
60214;BME280;46080;46.904;19.688;2022-11-15T00:40:17;100634.56;;;5.68;100.00
60214;BME280;46080;46.904;19.688;2022-11-15T00:43:01;100632.41;;;5.73;100.00
60214;BME280;46080;46.904;19.688;2022-11-15T00:45:46;100632.28;;;5.75;100.00
60214;BME280;46080;46.904;19.688;2022-11-15T00:48:31;100627.13;;;5.73;100.00
60214;BME280;46080;46.904;19.688;2022-11-15T00:51:16;100610.13;;;5.76;100.00
60214;BME280;46080;46.904;19.688;2022-11-15T00:54:00;100611.56;;;5.80;100.00
60214;BME280;46080;46.904;19.688;2022-11-15T00:56:44;100608.09;;;5.80;100.00
60214;BME280;46080;46.904;19.688;2022-11-15T00:59:29;100601.19;;;5.88;100.00
60214;BME280;46080;46.904;19.688;2022-11-15T01:02:13;100598.28;;;5.91;100.00
60214;BME280;46080;46.904;19.688;2022-11-15T01:04:57;100602.16;;;5.87;100.00
60214;BME280;46080;46.904;19.688;2022-11-15T01:07:41;100606.59;;;5.87;100.00
60214;BME280;46080;46.904;19.688;2022-11-15T01:10:27;100591.75;;;5.74;100.00
60214;BME280;46080;46.904;19.688;2022-11-15T01:13:11;100608.22;;;5.78;100.00
60214;BME280;46080;46.904;19.688;2022-11-15T01:15:55;100598.34;;;5.80;100.00
60214;BME280;46080;46.904;19.688;2022-11-15T01:18:40;100592.53;;;5.86;100.00
60214;BME280;46080;46.904;19.688;2022-11-15T01:21:24;100594.09;;;5.89;100.00
60214;BME280;46080;46.904;19.688;2022-11-15T01:24:12;100593.03;;;5.80;100.00
60214;BME280;46080;46.904;19.688;2022-11-15T01:26:56;100590.53;;;5.79;100.00
60214;BME280;46080;46.904;19.688;2022-11-15T01:29:41;100600.47;;;5.86;100.00
60214;BME280;46080;46.904;19.688;2022-11-15T01:32:25;100599.41;;;5.78;100.00
60214;BME280;46080;46.904;19.688;2022-11-15T01:35:09;100586.91;;;5.80;100.00
60214;BME280;46080;46.904;19.688;2022-11-15T01:37:55;100593.50;;;5.85;100.00
60214;BME280;46080;46.904;19.688;2022-11-15T01:40:39;100585.94;;;5.81;100.00
60214;BME280;46080;46.904;19.688;2022-11-15T01:43:30;100594.25;;;5.76;100.00
60214;BME280;46080;46.904;19.688;2022-11-15T01:46:24;100591.97;;;5.83;100.00
60214;BME280;46080;46.904;19.688;2022-11-15T01:49:14;100587.81;;;5.90;100.00
60214;BME280;46080;46.904;19.688;2022-11-15T01:52:02;100598.91;;;5.84;100.00
60214;BME280;46080;46.904;19.688;2022-11-15T01:54:48;100582.00;;;5.75;100.00
60214;BME280;46080;46.904;19.688;2022-11-15T01:57:34;100588.19;;;5.64;100.00
60214;BME280;46080;46.904;19.688;2022-11-15T02:00:19;100581.53;;;5.70;100.00
60214;BME280;46080;46.904;19.688;2022-11-15T02:03:03;100571.59;;;5.62;100.00
60214;BME280;46080;46.904;19.688;2022-11-15T02:05:48;100575.09;;;5.63;100.00
60214;BME280;46080;46.904;19.688;2022-11-15T02:08:34;100569.16;;;5.70;100.00
60214;BME280;46080;46.904;19.688;2022-11-15T02:11:18;100572.78;;;5.69;100.00
60214;BME280;46080;46.904;19.688;2022-11-15T02:14:03;100575.28;;;5.71;100.00
60214;BME280;46080;46.904;19.688;2022-11-15T02:23:21;100563.81;;;5.82;100.00
60214;BME280;46080;46.904;19.688;2022-11-15T02:29:10;100557.69;;;5.81;100.00
60214;BME280;46080;46.904;19.688;2022-11-15T02:41:50;100562.94;;;5.60;100.00
60214;BME280;46080;46.904;19.688;2022-11-15T02:44:43;100554.50;;;5.66;100.00
60214;BME280;46080;46.904;19.688;2022-11-15T02:47:32;100562.06;;;5.71;100.00
60214;BME280;46080;46.904;19.688;2022-11-15T02:50:21;100564.59;;;5.72;100.00
60214;BME280;46080;46.904;19.688;2022-11-15T02:53:07;100558.91;;;5.77;100.00
60214;BME280;46080;46.904;19.688;2022-11-15T02:55:53;100558.91;;;5.77;100.00
60214;BME280;46080;46.904;19.688;2022-11-15T03:06:19;100546.59;;;5.87;100.00
60214;BME280;46080;46.904;19.688;2022-11-15T03:08:32;100550.84;;;5.79;100.00
60214;BME280;46080;46.904;19.688;2022-11-15T03:11:22;100558.50;;;5.61;100.00
60214;BME280;46080;46.904;19.688;2022-11-15T03:17:30;100553.97;;;5.51;100.00
60214;BME280;46080;46.904;19.688;2022-11-15T03:20:18;100542.94;;;5.46;100.00
60214;BME280;46080;46.904;19.688;2022-11-15T03:23:10;100543.63;;;5.48;100.00
60214;BME280;46080;46.904;19.688;2022-11-15T03:25:56;100555.44;;;5.44;100.00
60214;BME280;46080;46.904;19.688;2022-11-15T03:28:46;100538.53;;;5.35;100.00
60214;BME280;46080;46.904;19.688;2022-11-15T03:31:38;100535.75;;;5.37;100.00
60214;BME280;46080;46.904;19.688;2022-11-15T03:37:26;100530.09;;;5.42;100.00
60214;BME280;46080;46.904;19.688;2022-11-15T03:40:14;100540.38;;;5.24;100.00
60214;BME280;46080;46.904;19.688;2022-11-15T03:46:38;100524.59;;;5.33;100.00
60214;BME280;46080;46.904;19.688;2022-11-15T03:49:32;100517.69;;;5.42;100.00
60214;BME280;46080;46.904;19.688;2022-11-15T03:52:18;100522.53;;;5.37;100.00
60214;BME280;46080;46.904;19.688;2022-11-15T03:55:04;100521.97;;;5.33;100.00
60214;BME280;46080;46.904;19.688;2022-11-15T03:57:57;100504.16;;;5.35;100.00
60214;BME280;46080;46.904;19.688;2022-11-15T04:00:41;100509.25;;;5.27;100.00
60214;BME280;46080;46.904;19.688;2022-11-15T04:03:25;100511.72;;;5.40;100.00
60214;BME280;46080;46.904;19.688;2022-11-15T04:06:09;100509.69;;;5.32;100.00
60214;BME280;46080;46.904;19.688;2022-11-15T04:08:54;100514.84;;;5.34;100.00
60214;BME280;46080;46.904;19.688;2022-11-15T04:11:38;100505.34;;;5.43;100.00
60214;BME280;46080;46.904;19.688;2022-11-15T04:14:22;100507.69;;;5.25;100.00
60214;BME280;46080;46.904;19.688;2022-11-15T04:17:07;100503.78;;;5.08;100.00
60214;BME280;46080;46.904;19.688;2022-11-15T04:19:52;100504.78;;;4.95;100.00
60214;BME280;46080;46.904;19.688;2022-11-15T04:23:06;100501.91;;;4.87;100.00
60214;BME280;46080;46.904;19.688;2022-11-15T04:26:12;100504.44;;;4.89;100.00
60214;BME280;46080;46.904;19.688;2022-11-15T04:28:58;100499.28;;;4.87;100.00
60214;BME280;46080;46.904;19.688;2022-11-15T04:32:17;100487.38;;;4.93;100.00
60214;BME280;46080;46.904;19.688;2022-11-15T04:35:01;100474.31;;;4.80;100.00
60214;BME280;46080;46.904;19.688;2022-11-15T04:37:46;100488.63;;;4.77;100.00
60214;BME280;46080;46.904;19.688;2022-11-15T04:40:30;100481.16;;;4.82;100.00
60214;BME280;46080;46.904;19.688;2022-11-15T04:43:14;100471.13;;;4.65;100.00
60214;BME280;46080;46.904;19.688;2022-11-15T04:45:59;100466.56;;;4.56;100.00
60214;BME280;46080;46.904;19.688;2022-11-15T04:48:43;100460.44;;;4.55;100.00
60214;BME280;46080;46.904;19.688;2022-11-15T04:51:28;100464.97;;;4.64;100.00
60214;BME280;46080;46.904;19.688;2022-11-15T04:54:13;100462.09;;;4.67;100.00
60214;BME280;46080;46.904;19.688;2022-11-15T04:56:57;100459.44;;;4.67;100.00
60214;BME280;46080;46.904;19.688;2022-11-15T04:59:41;100463.78;;;4.69;100.00
60214;BME280;46080;46.904;19.688;2022-11-15T05:02:26;100468.09;;;4.70;100.00
60214;BME280;46080;46.904;19.688;2022-11-15T05:05:30;100446.63;;;4.63;100.00
60214;BME280;46080;46.904;19.688;2022-11-15T05:08:14;100458.50;;;4.69;100.00
60214;BME280;46080;46.904;19.688;2022-11-15T05:10:58;100462.94;;;4.68;100.00
60214;BME280;46080;46.904;19.688;2022-11-15T05:13:42;100450.91;;;4.75;100.00
60214;BME280;46080;46.904;19.688;2022-11-15T05:16:26;100433.41;;;4.74;100.00
60214;BME280;46080;46.904;19.688;2022-11-15T05:19:11;100435.66;;;4.79;100.00
60214;BME280;46080;46.904;19.688;2022-11-15T05:21:55;100449.38;;;4.73;100.00
60214;BME280;46080;46.904;19.688;2022-11-15T05:24:39;100453.66;;;4.74;100.00
60214;BME280;46080;46.904;19.688;2022-11-15T05:27:23;100451.88;;;4.74;100.00
60214;BME280;46080;46.904;19.688;2022-11-15T05:30:08;100448.88;;;4.79;100.00
60214;BME280;46080;46.904;19.688;2022-11-15T05:32:53;100454.03;;;4.80;100.00
60214;BME280;46080;46.904;19.688;2022-11-15T05:35:40;100466.13;;;4.83;100.00
60214;BME280;46080;46.904;19.688;2022-11-15T05:38:25;100454.16;;;4.79;100.00
60214;BME280;46080;46.904;19.688;2022-11-15T05:41:10;100460.72;;;4.84;100.00
60214;BME280;46080;46.904;19.688;2022-11-15T05:43:56;100450.44;;;4.70;100.00
60214;BME280;46080;46.904;19.688;2022-11-15T05:46:41;100462.34;;;4.76;100.00
60214;BME280;46080;46.904;19.688;2022-11-15T05:49:30;100478.19;;;4.76;100.00
60214;BME280;46080;46.904;19.688;2022-11-15T05:52:18;100472.03;;;4.75;100.00
60214;BME280;46080;46.904;19.688;2022-11-15T05:55:04;100466.75;;;4.75;100.00
60214;BME280;46080;46.904;19.688;2022-11-15T05:57:50;100468.78;;;4.83;100.00
60214;BME280;46080;46.904;19.688;2022-11-15T06:00:35;100474.44;;;4.78;100.00
60214;BME280;46080;46.904;19.688;2022-11-15T06:03:19;100484.50;;;4.84;100.00
60214;BME280;46080;46.904;19.688;2022-11-15T06:06:03;100493.97;;;4.98;100.00
60214;BME280;46080;46.904;19.688;2022-11-15T06:08:47;100485.38;;;5.17;100.00
60214;BME280;46080;46.904;19.688;2022-11-15T06:11:31;100496.22;;;5.14;100.00
60214;BME280;46080;46.904;19.688;2022-11-15T06:14:15;100504.66;;;5.29;100.00
60214;BME280;46080;46.904;19.688;2022-11-15T06:16:59;100506.41;;;5.19;100.00
60214;BME280;46080;46.904;19.688;2022-11-15T06:19:44;100504.97;;;5.15;100.00
60214;BME280;46080;46.904;19.688;2022-11-15T06:22:28;100495.03;;;5.28;100.00
60214;BME280;46080;46.904;19.688;2022-11-15T06:25:12;100499.38;;;5.29;100.00
60214;BME280;46080;46.904;19.688;2022-11-15T06:27:57;100485.00;;;5.43;100.00
60214;BME280;46080;46.904;19.688;2022-11-15T06:30:42;100484.81;;;5.35;100.00
60214;BME280;46080;46.904;19.688;2022-11-15T06:33:26;100476.28;;;5.31;100.00
60214;BME280;46080;46.904;19.688;2022-11-15T06:36:12;100474.19;;;5.46;100.00
60214;BME280;46080;46.904;19.688;2022-11-15T06:39:01;100487.16;;;5.49;100.00
60214;BME280;46080;46.904;19.688;2022-11-15T06:41:45;100474.19;;;5.46;100.00
60214;BME280;46080;46.904;19.688;2022-11-15T06:44:30;100470.56;;;5.47;100.00
60214;BME280;46080;46.904;19.688;2022-11-15T06:47:14;100474.44;;;5.64;100.00
60214;BME280;46080;46.904;19.688;2022-11-15T06:49:58;100462.22;;;5.73;100.00
60214;BME280;46080;46.904;19.688;2022-11-15T06:52:43;100473.34;;;5.67;100.00
60214;BME280;46080;46.904;19.688;2022-11-15T06:55:27;100475.53;;;5.62;100.00
60214;BME280;46080;46.904;19.688;2022-11-15T06:58:11;100469.03;;;5.66;100.00
60214;BME280;46080;46.904;19.688;2022-11-15T07:01:04;100472.44;;;5.56;100.00
60214;BME280;46080;46.904;19.688;2022-11-15T07:03:49;100466.69;;;5.51;100.00
60214;BME280;46080;46.904;19.688;2022-11-15T07:06:33;100470.06;;;5.53;100.00
60214;BME280;46080;46.904;19.688;2022-11-15T07:09:17;100468.81;;;5.57;100.00
60214;BME280;46080;46.904;19.688;2022-11-15T07:12:02;100477.00;;;5.54;100.00
60214;BME280;46080;46.904;19.688;2022-11-15T07:14:46;100464.38;;;5.58;100.00
60214;BME280;46080;46.904;19.688;2022-11-15T07:17:30;100461.66;;;5.69;100.00
60214;BME280;46080;46.904;19.688;2022-11-15T07:20:15;100450.81;;;5.72;100.00
60214;BME280;46080;46.904;19.688;2022-11-15T07:23:04;100452.91;;;5.69;100.00
60214;BME280;46080;46.904;19.688;2022-11-15T07:25:48;100454.91;;;5.77;100.00
60214;BME280;46080;46.904;19.688;2022-11-15T07:28:33;100461.31;;;5.84;100.00
60214;BME280;46080;46.904;19.688;2022-11-15T07:31:17;100463.25;;;5.82;100.00
60214;BME280;46080;46.904;19.688;2022-11-15T07:34:02;100457.44;;;5.88;100.00
60214;BME280;46080;46.904;19.688;2022-11-15T07:36:46;100458.41;;;5.87;100.00
60214;BME280;46080;46.904;19.688;2022-11-15T07:39:31;100454.75;;;5.99;100.00
60214;BME280;46080;46.904;19.688;2022-11-15T07:42:15;100462.00;;;5.97;100.00
60214;BME280;46080;46.904;19.688;2022-11-15T07:45:19;100454.69;;;6.10;100.00
60214;BME280;46080;46.904;19.688;2022-11-15T07:48:04;100442.94;;;6.03;100.00
60214;BME280;46080;46.904;19.688;2022-11-15T07:50:48;100442.66;;;6.06;100.00
60214;BME280;46080;46.904;19.688;2022-11-15T07:53:32;100446.13;;;6.07;100.00
60214;BME280;46080;46.904;19.688;2022-11-15T07:56:17;100434.06;;;6.14;100.00
60214;BME280;46080;46.904;19.688;2022-11-15T07:59:01;100436.16;;;6.20;100.00
60214;BME280;46080;46.904;19.688;2022-11-15T08:01:45;100440.56;;;6.10;100.00
60214;BME280;46080;46.904;19.688;2022-11-15T08:04:30;100433.44;;;6.01;100.00
60214;BME280;46080;46.904;19.688;2022-11-15T08:07:14;100426.22;;;6.03;100.00
60214;BME280;46080;46.904;19.688;2022-11-15T08:09:58;100422.66;;;6.23;100.00
60214;BME280;46080;46.904;19.688;2022-11-15T08:12:44;100422.16;;;6.39;100.00
60214;BME280;46080;46.904;19.688;2022-11-15T08:15:29;100425.38;;;6.53;100.00
60214;BME280;46080;46.904;19.688;2022-11-15T08:18:15;100424.28;;;6.55;100.00
60214;BME280;46080;46.904;19.688;2022-11-15T08:21:01;100418.81;;;6.47;100.00
60214;BME280;46080;46.904;19.688;2022-11-15T08:23:45;100417.84;;;6.48;100.00
60214;BME280;46080;46.904;19.688;2022-11-15T08:26:29;100418.53;;;6.50;100.00
60214;BME280;46080;46.904;19.688;2022-11-15T08:29:14;100421.38;;;6.58;100.00
60214;BME280;46080;46.904;19.688;2022-11-15T08:31:58;100419.97;;;6.64;100.00
60214;BME280;46080;46.904;19.688;2022-11-15T08:34:43;100422.75;;;6.62;100.00
60214;BME280;46080;46.904;19.688;2022-11-15T08:37:27;100421.94;;;6.62;100.00
60214;BME280;46080;46.904;19.688;2022-11-15T08:40:12;100417.03;;;6.67;100.00
60214;BME280;46080;46.904;19.688;2022-11-15T08:42:57;100415.34;;;6.66;100.00
60214;BME280;46080;46.904;19.688;2022-11-15T08:45:43;100410.63;;;6.70;100.00
60214;BME280;46080;46.904;19.688;2022-11-15T08:48:27;100408.25;;;6.76;100.00
60214;BME280;46080;46.904;19.688;2022-11-15T08:51:11;100413.88;;;6.93;100.00
60214;BME280;46080;46.904;19.688;2022-11-15T08:53:55;100405.34;;;6.89;100.00
60214;BME280;46080;46.904;19.688;2022-11-15T08:56:39;100407.44;;;6.95;100.00
60214;BME280;46080;46.904;19.688;2022-11-15T08:59:23;100415.69;;;7.02;100.00
60214;BME280;46080;46.904;19.688;2022-11-15T09:02:12;100416.38;;;7.04;100.00
60214;BME280;46080;46.904;19.688;2022-11-15T09:04:58;100414.13;;;6.99;100.00
60214;BME280;46080;46.904;19.688;2022-11-15T09:07:42;100409.66;;;7.00;100.00
60214;BME280;46080;46.904;19.688;2022-11-15T09:10:28;100411.75;;;6.96;100.00
60214;BME280;46080;46.904;19.688;2022-11-15T09:13:12;100407.88;;;7.00;100.00
60214;BME280;46080;46.904;19.688;2022-11-15T09:16:00;100407.28;;;6.97;100.00
60214;BME280;46080;46.904;19.688;2022-11-15T09:18:45;100399.22;;;6.89;100.00
60214;BME280;46080;46.904;19.688;2022-11-15T09:21:30;100398.22;;;6.80;100.00
60214;BME280;46080;46.904;19.688;2022-11-15T09:24:14;100389.84;;;6.75;100.00
60214;BME280;46080;46.904;19.688;2022-11-15T09:26:58;100389.44;;;6.70;100.00
60214;BME280;46080;46.904;19.688;2022-11-15T09:29:43;100383.28;;;6.69;100.00
60214;BME280;46080;46.904;19.688;2022-11-15T09:32:30;100381.50;;;6.70;100.00
60214;BME280;46080;46.904;19.688;2022-11-15T09:35:14;100375.50;;;6.77;100.00
60214;BME280;46080;46.904;19.688;2022-11-15T09:37:58;100365.31;;;6.82;100.00
60214;BME280;46080;46.904;19.688;2022-11-15T09:40:42;100372.16;;;6.85;100.00
60214;BME280;46080;46.904;19.688;2022-11-15T09:49:29;100355.53;;;6.73;100.00
60214;BME280;46080;46.904;19.688;2022-11-15T09:52:10;100352.91;;;6.73;100.00
60214;BME280;46080;46.904;19.688;2022-11-15T09:54:38;100352.63;;;6.76;100.00
60214;BME280;46080;46.904;19.688;2022-11-15T10:00:38;100333.78;;;6.89;100.00
60214;BME280;46080;46.904;19.688;2022-11-15T10:05:39;100329.47;;;6.88;100.00
60214;BME280;46080;46.904;19.688;2022-11-15T10:08:29;100334.34;;;6.93;100.00
60214;BME280;46080;46.904;19.688;2022-11-15T10:11:02;100328.19;;;6.92;100.00
60214;BME280;46080;46.904;19.688;2022-11-15T10:13:31;100324.03;;;6.90;100.00
60214;BME280;46080;46.904;19.688;2022-11-15T10:24:22;100332.94;;;6.89;100.00
60214;BME280;46080;46.904;19.688;2022-11-15T10:26:54;100332.13;;;6.88;100.00
60214;BME280;46080;46.904;19.688;2022-11-15T10:29:21;100327.94;;;6.86;100.00
60214;BME280;46080;46.904;19.688;2022-11-15T10:31:48;100332.66;;;6.92;100.00
60214;BME280;46080;46.904;19.688;2022-11-15T10:34:20;100324.44;;;6.95;100.00
60214;BME280;46080;46.904;19.688;2022-11-15T10:37:00;100323.59;;;6.94;100.00
60214;BME280;46080;46.904;19.688;2022-11-15T10:39:27;100320.78;;;7.06;100.00
60214;BME280;46080;46.904;19.688;2022-11-15T10:41:54;100316.47;;;7.14;100.00
60214;BME280;46080;46.904;19.688;2022-11-15T10:44:23;100306.00;;;7.13;100.00
60214;BME280;46080;46.904;19.688;2022-11-15T10:49:32;100312.50;;;7.18;100.00
60214;BME280;46080;46.904;19.688;2022-11-15T10:52:18;100307.06;;;7.30;100.00
60214;BME280;46080;46.904;19.688;2022-11-15T10:57:28;100297.97;;;7.32;100.00
60214;BME280;46080;46.904;19.688;2022-11-15T10:59:59;100294.34;;;7.33;100.00
60214;BME280;46080;46.904;19.688;2022-11-15T11:05:01;100286.69;;;7.30;100.00
60214;BME280;46080;46.904;19.688;2022-11-15T11:07:34;100292.66;;;7.32;100.00
60214;BME280;46080;46.904;19.688;2022-11-15T11:10:02;100282.91;;;7.33;100.00
60214;BME280;46080;46.904;19.688;2022-11-15T11:12:31;100271.88;;;7.38;100.00
60214;BME280;46080;46.904;19.688;2022-11-15T11:14:58;100267.34;;;7.48;100.00
60214;BME280;46080;46.904;19.688;2022-11-15T11:20:51;100259.28;;;7.40;100.00
60214;BME280;46080;46.904;19.688;2022-11-15T11:23:34;100258.69;;;7.46;100.00
60214;BME280;46080;46.904;19.688;2022-11-15T11:34:16;100259.56;;;7.36;100.00
60214;BME280;46080;46.904;19.688;2022-11-15T11:36:59;100259.13;;;7.41;100.00
60214;BME280;46080;46.904;19.688;2022-11-15T11:42:41;100252.50;;;7.55;100.00
60214;BME280;46080;46.904;19.688;2022-11-15T11:47:39;100237.56;;;7.54;100.00
60214;BME280;46080;46.904;19.688;2022-11-15T11:50:13;100226.94;;;7.54;100.00
60214;BME280;46080;46.904;19.688;2022-11-15T11:55:34;100218.47;;;7.50;100.00
60214;BME280;46080;46.904;19.688;2022-11-15T12:00:56;100199.16;;;7.58;100.00
60214;BME280;46080;46.904;19.688;2022-11-15T12:03:39;100198.72;;;7.63;100.00
60214;BME280;46080;46.904;19.688;2022-11-15T12:09:52;100193.19;;;7.74;100.00
60214;BME280;46080;46.904;19.688;2022-11-15T12:17:34;100187.81;;;8.02;100.00
60214;BME280;46080;46.904;19.688;2022-11-15T12:20:06;100191.13;;;8.04;100.00
60214;BME280;46080;46.904;19.688;2022-11-15T12:22:44;100194.09;;;8.19;100.00
60214;BME280;46080;46.904;19.688;2022-11-15T12:31:03;100184.41;;;8.28;100.00
60214;BME280;46080;46.904;19.688;2022-11-15T12:33:44;100173.38;;;8.22;100.00
60214;BME280;46080;46.904;19.688;2022-11-15T12:36:30;100168.81;;;8.15;100.00
60214;BME280;46080;46.904;19.688;2022-11-15T12:41:34;100164.81;;;7.93;100.00
60214;BME280;46080;46.904;19.688;2022-11-15T12:44:02;100150.13;;;7.98;100.00
60214;BME280;46080;46.904;19.688;2022-11-15T12:59:53;100151.56;;;7.93;100.00
60214;BME280;46080;46.904;19.688;2022-11-15T13:02:25;100133.72;;;7.85;100.00
60214;BME280;46080;46.904;19.688;2022-11-15T13:18:30;100122.44;;;7.83;100.00
60214;BME280;46080;46.904;19.688;2022-11-15T13:20:57;100132.38;;;7.81;100.00
60214;BME280;46080;46.904;19.688;2022-11-15T13:23:22;100123.72;;;7.79;100.00
60214;BME280;46080;46.904;19.688;2022-11-15T13:26:10;100118.66;;;7.85;100.00
60214;BME280;46080;46.904;19.688;2022-11-15T13:33:47;100117.50;;;7.88;100.00
60214;BME280;46080;46.904;19.688;2022-11-15T13:36:18;100114.84;;;7.88;100.00
60214;BME280;46080;46.904;19.688;2022-11-15T13:38:44;100117.13;;;7.83;100.00
60214;BME280;46080;46.904;19.688;2022-11-15T13:41:17;100121.63;;;7.82;100.00
60214;BME280;46080;46.904;19.688;2022-11-15T13:43:44;100118.13;;;7.82;100.00
60214;BME280;46080;46.904;19.688;2022-11-15T13:46:19;100115.31;;;7.83;100.00
60214;BME280;46080;46.904;19.688;2022-11-15T13:49:11;100108.66;;;7.79;100.00
60214;BME280;46080;46.904;19.688;2022-11-15T13:51:39;100113.25;;;7.77;100.00
60214;BME280;46080;46.904;19.688;2022-11-15T14:03:25;100090.53;;;7.75;100.00
60214;BME280;46080;46.904;19.688;2022-11-15T14:06:14;100092.19;;;7.76;100.00
60214;BME280;46080;46.904;19.688;2022-11-15T14:08:42;100099.31;;;7.75;100.00
60214;BME280;46080;46.904;19.688;2022-11-15T14:11:22;100101.59;;;7.70;100.00
60214;BME280;46080;46.904;19.688;2022-11-15T14:14:16;100096.28;;;7.70;100.00
60214;BME280;46080;46.904;19.688;2022-11-15T14:16:44;100081.34;;;7.69;100.00
60214;BME280;46080;46.904;19.688;2022-11-15T14:19:33;100093.09;;;7.66;100.00
60214;BME280;46080;46.904;19.688;2022-11-15T14:22:14;100075.59;;;7.74;100.00
60214;BME280;46080;46.904;19.688;2022-11-15T14:24:42;100068.13;;;7.77;100.00
60214;BME280;46080;46.904;19.688;2022-11-15T14:27:26;100068.84;;;7.79;100.00
60214;BME280;46080;46.904;19.688;2022-11-15T14:29:52;100067.84;;;7.80;100.00
60214;BME280;46080;46.904;19.688;2022-11-15T14:32:23;100069.38;;;7.83;100.00
60214;BME280;46080;46.904;19.688;2022-11-15T14:34:57;100072.00;;;7.83;100.00
60214;BME280;46080;46.904;19.688;2022-11-15T14:37:26;100048.66;;;7.86;100.00
60214;BME280;46080;46.904;19.688;2022-11-15T14:39:52;100054.50;;;7.90;100.00
60214;BME280;46080;46.904;19.688;2022-11-15T14:42:20;100054.09;;;7.85;100.00
60214;BME280;46080;46.904;19.688;2022-11-15T14:44:47;100052.47;;;7.84;100.00
60214;BME280;46080;46.904;19.688;2022-11-15T14:47:13;100052.63;;;7.82;100.00
60214;BME280;46080;46.904;19.688;2022-11-15T14:49:40;100047.47;;;7.81;100.00
60214;BME280;46080;46.904;19.688;2022-11-15T14:54:50;100045.84;;;7.88;100.00
60214;BME280;46080;46.904;19.688;2022-11-15T14:57:18;100052.97;;;7.87;100.00
60214;BME280;46080;46.904;19.688;2022-11-15T14:59:43;100045.69;;;7.89;100.00
60214;BME280;46080;46.904;19.688;2022-11-15T15:02:16;100043.03;;;7.89;100.00
60214;BME280;46080;46.904;19.688;2022-11-15T15:04:43;100035.72;;;7.92;100.00
60214;BME280;46080;46.904;19.688;2022-11-15T15:07:08;100034.59;;;7.94;100.00
60214;BME280;46080;46.904;19.688;2022-11-15T15:09:34;100028.31;;;7.95;100.00
60214;BME280;46080;46.904;19.688;2022-11-15T15:12:00;100020.00;;;7.90;100.00
60214;BME280;46080;46.904;19.688;2022-11-15T15:14:25;100022.66;;;7.90;100.00
60214;BME280;46080;46.904;19.688;2022-11-15T15:16:51;100023.63;;;7.89;100.00
60214;BME280;46080;46.904;19.688;2022-11-15T15:19:17;100014.09;;;8.04;100.00
60214;BME280;46080;46.904;19.688;2022-11-15T15:21:42;100017.38;;;7.98;100.00
60214;BME280;46080;46.904;19.688;2022-11-15T15:24:15;100014.19;;;7.95;100.00
60214;BME280;46080;46.904;19.688;2022-11-15T15:26:41;100016.00;;;7.94;100.00
60214;BME280;46080;46.904;19.688;2022-11-15T15:29:09;100010.19;;;7.90;100.00
60214;BME280;46080;46.904;19.688;2022-11-15T15:31:34;100019.28;;;7.88;100.00
60214;BME280;46080;46.904;19.688;2022-11-15T15:34:00;100019.44;;;7.86;100.00
60214;BME280;46080;46.904;19.688;2022-11-15T15:36:26;100013.31;;;7.86;100.00
60214;BME280;46080;46.904;19.688;2022-11-15T15:38:52;100019.75;;;7.83;100.00
60214;BME280;46080;46.904;19.688;2022-11-15T15:41:17;100021.59;;;7.83;100.00
60214;BME280;46080;46.904;19.688;2022-11-15T15:43:45;100019.44;;;7.86;100.00
60214;BME280;46080;46.904;19.688;2022-11-15T15:46:15;100017.34;;;7.90;100.00
60214;BME280;46080;46.904;19.688;2022-11-15T15:48:42;100023.63;;;7.89;100.00
60214;BME280;46080;46.904;19.688;2022-11-15T15:51:08;100019.66;;;7.93;100.00
60214;BME280;46080;46.904;19.688;2022-11-15T15:53:34;100013.66;;;7.91;100.00
60214;BME280;46080;46.904;19.688;2022-11-15T15:56:00;100018.16;;;7.90;100.00
60214;BME280;46080;46.904;19.688;2022-11-15T15:58:26;100022.31;;;7.93;100.00
60214;BME280;46080;46.904;19.688;2022-11-15T16:00:51;100016.16;;;7.93;100.00
60214;BME280;46080;46.904;19.688;2022-11-15T16:03:17;100013.50;;;7.93;100.00
60214;BME280;46080;46.904;19.688;2022-11-15T16:05:43;100017.50;;;7.88;100.00
60214;BME280;46080;46.904;19.688;2022-11-15T16:08:19;100012.03;;;7.90;100.00
60214;BME280;46080;46.904;19.688;2022-11-15T16:10:46;100018.31;;;7.89;100.00
60214;BME280;46080;46.904;19.688;2022-11-15T16:13:12;100013.97;;;7.88;100.00
60214;BME280;46080;46.904;19.688;2022-11-15T16:15:38;100016.31;;;7.91;100.00
60214;BME280;46080;46.904;19.688;2022-11-15T16:18:12;100025.59;;;7.87;100.00